Hildebran, North Carolina
Current Conditions -  °F | °C
As of 10:53 PM on Wednesday 22 Oct 2014 (Local Time) from KHKY Reporting Station
Clear Clear  
Wind Chill: 43°   Ceiling: Unl
Heat Index: 45°   Visibility: 10mi
Dew Point: 37°   Wind: 5mph
Humidity: 74%   Direction: 270°W
Pressure: 30.11"   Gusts: NA
Location:  35.71°N, 81.42°W
Report Text: KHKY 230253Z AUTO 27004KT 10SM CLR 07/03 A3011 RMK AO2 SLP185 T00720028 53003
Loading
Personal Weather Stations






























Interactive Weather Map
Tropical Storm Tracking
New forecast layout! Learn more

10-Day Weather Forecast

Advertisements
Track Severe Weather on mobile